createdAt,value
2022-11-26T00:00:50.136Z,16.75
2022-11-26T00:03:53.214Z,16.02
2022-11-26T00:06:54.751Z,18.40
2022-11-26T00:09:58.184Z,17.55
2022-11-26T00:12:59.906Z,17.05
2022-11-26T00:16:01.483Z,17.00
2022-11-26T00:19:03.052Z,16.95
2022-11-26T00:22:04.884Z,17.38
2022-11-26T00:25:12.974Z,15.60
2022-11-26T00:28:24.343Z,15.13
2022-11-26T00:31:26.756Z,15.40
2022-11-26T00:34:28.386Z,13.05
2022-11-26T00:37:37.903Z,15.93
2022-11-26T00:40:41.079Z,14.95
2022-11-26T00:43:42.704Z,16.05
2022-11-26T00:46:44.286Z,15.07
2022-11-26T00:49:46.090Z,30.90
2022-11-26T00:52:51.416Z,18.10
2022-11-26T00:55:52.966Z,14.93
2022-11-26T00:58:54.982Z,17.13
2022-11-26T01:01:56.674Z,14.57
2022-11-26T01:04:58.229Z,14.68
2022-11-26T01:08:06.964Z,14.48
2022-11-26T01:11:20.464Z,14.55
2022-11-26T01:14:23.351Z,13.00
2022-11-26T01:17:25.119Z,14.68
2022-11-26T01:20:31.333Z,13.43
2022-11-26T01:23:32.949Z,13.38
2022-11-26T01:26:38.917Z,16.48
2022-11-26T01:29:40.498Z,14.98
2022-11-26T01:32:42.109Z,13.77
2022-11-26T01:35:43.727Z,14.52
2022-11-26T01:38:46.668Z,15.80
2022-11-26T01:42:06.386Z,15.10
2022-11-26T01:45:17.434Z,14.55
2022-11-26T01:48:34.310Z,13.02
2022-11-26T01:51:35.967Z,15.18
2022-11-26T01:54:42.301Z,14.07
2022-11-26T01:57:45.335Z,15.85
2022-11-26T02:00:49.157Z,15.13
2022-11-26T02:03:59.587Z,16.05
2022-11-26T02:07:01.640Z,14.82
2022-11-26T02:10:03.810Z,14.18
2022-11-26T02:13:05.892Z,14.05
2022-11-26T02:16:17.552Z,13.88
2022-11-26T02:19:28.178Z,15.30
2022-11-26T02:22:41.592Z,12.95
2022-11-26T02:26:21.083Z,14.15
2022-11-26T02:29:26.368Z,14.52
2022-11-26T02:32:58.838Z,13.95
2022-11-26T02:36:38.418Z,13.70
2022-11-26T02:39:40.072Z,15.18
2022-11-26T02:42:42.026Z,13.30
2022-11-26T02:45:48.948Z,10.73
2022-11-26T02:48:52.719Z,14.57
2022-11-26T02:51:58.132Z,11.82
2022-11-26T02:55:01.564Z,14.60
2022-11-26T02:58:03.327Z,14.05
2022-11-26T03:01:13.735Z,13.68
2022-11-26T03:04:21.300Z,14.18
2022-11-26T03:07:23.554Z,15.15
2022-11-26T03:10:27.532Z,13.02
2022-11-26T03:13:29.132Z,13.85
2022-11-26T03:16:30.713Z,13.35
2022-11-26T03:19:32.353Z,12.18
2022-11-26T03:22:34.156Z,12.35
2022-11-26T03:25:36.127Z,13.27
2022-11-26T03:28:37.663Z,14.55
2022-11-26T03:31:39.453Z,13.95
2022-11-26T03:34:41.247Z,12.57
2022-11-26T03:37:43.111Z,13.23
2022-11-26T03:40:44.817Z,13.25
2022-11-26T03:43:46.453Z,14.13
2022-11-26T03:46:48.064Z,14.90
2022-11-26T03:49:49.634Z,14.43
2022-11-26T03:52:51.304Z,14.20
2022-11-26T03:55:52.861Z,15.65
2022-11-26T03:58:54.459Z,12.88
2022-11-26T04:01:56.118Z,13.88
2022-11-26T04:04:57.755Z,14.55
2022-11-26T04:07:59.323Z,14.18
2022-11-26T04:11:01.093Z,15.57
2022-11-26T04:14:02.859Z,12.75
2022-11-26T04:17:04.539Z,14.82
2022-11-26T04:20:07.114Z,14.25
2022-11-26T04:23:08.741Z,14.65
2022-11-26T04:26:16.863Z,13.77
2022-11-26T04:29:18.411Z,15.38
2022-11-26T04:32:20.144Z,13.15
2022-11-26T04:35:21.808Z,12.90
2022-11-26T04:38:25.919Z,12.18
2022-11-26T04:41:27.886Z,12.70
2022-11-26T04:44:29.447Z,12.90
2022-11-26T04:47:31.008Z,15.02
2022-11-26T04:50:32.676Z,12.73
2022-11-26T04:53:34.202Z,13.85
2022-11-26T04:56:35.799Z,13.85
2022-11-26T04:59:37.391Z,14.55
2022-11-26T05:02:38.982Z,14.13
2022-11-26T05:05:40.669Z,15.05
2022-11-26T05:08:42.283Z,14.73
2022-11-26T05:11:43.819Z,14.00
2022-11-26T05:14:45.485Z,11.63
2022-11-26T05:17:47.002Z,15.55
2022-11-26T05:20:48.629Z,13.63
2022-11-26T05:23:50.154Z,15.00
2022-11-26T05:26:56.604Z,14.20
2022-11-26T05:29:58.560Z,13.73
2022-11-26T05:33:00.326Z,14.82
2022-11-26T05:36:01.886Z,14.30
2022-11-26T05:39:04.366Z,15.68
2022-11-26T05:42:09.438Z,13.40
2022-11-26T05:45:11.407Z,13.60
2022-11-26T05:48:13.047Z,15.43
2022-11-26T05:51:14.777Z,15.10
2022-11-26T05:54:16.847Z,13.95
2022-11-26T05:57:19.982Z,14.77
2022-11-26T06:00:21.943Z,16.50
2022-11-26T06:03:23.569Z,16.13
2022-11-26T06:06:25.485Z,17.17
2022-11-26T06:09:27.054Z,16.92
2022-11-26T06:12:28.624Z,16.85
2022-11-26T06:15:30.153Z,16.50
2022-11-26T06:18:31.802Z,16.30
2022-11-26T06:21:33.748Z,16.98
2022-11-26T06:24:35.427Z,17.70
2022-11-26T06:27:37.743Z,14.63
2022-11-26T06:30:39.305Z,16.00
2022-11-26T06:33:40.868Z,15.23
2022-11-26T06:36:42.783Z,16.08
2022-11-26T06:39:44.503Z,18.08
2022-11-26T06:42:51.075Z,16.77
2022-11-26T06:45:52.941Z,17.85
2022-11-26T06:48:54.795Z,16.40
2022-11-26T06:51:56.376Z,17.20
2022-11-26T06:54:57.915Z,18.60
2022-11-26T06:57:59.451Z,16.05
2022-11-26T07:01:07.191Z,16.92
2022-11-26T07:04:11.415Z,16.23
2022-11-26T07:07:13.024Z,17.27
2022-11-26T07:10:14.652Z,17.17
2022-11-26T07:13:16.215Z,17.38
2022-11-26T07:16:18.257Z,17.00
2022-11-26T07:19:19.819Z,18.35
2022-11-26T07:22:21.403Z,16.05
2022-11-26T07:25:22.975Z,17.75
2022-11-26T07:28:24.514Z,18.60
2022-11-26T07:31:26.287Z,18.60
2022-11-26T07:34:27.860Z,18.42
2022-11-26T07:37:29.440Z,17.35
2022-11-26T07:40:31.000Z,17.45
2022-11-26T07:43:35.799Z,17.35
2022-11-26T07:46:37.344Z,17.80
2022-11-26T07:49:38.923Z,15.20
2022-11-26T07:52:40.491Z,14.55
2022-11-26T07:55:42.229Z,14.43
2022-11-26T07:58:44.205Z,14.80
2022-11-26T08:01:45.892Z,15.77
2022-11-26T08:04:47.572Z,12.75
2022-11-26T08:07:49.196Z,14.07
2022-11-26T08:10:50.749Z,15.63
2022-11-26T08:13:58.047Z,12.30
2022-11-26T08:16:59.636Z,12.70
2022-11-26T08:20:01.248Z,13.50
2022-11-26T08:23:02.846Z,13.50
2022-11-26T08:29:36.606Z,13.65
2022-11-26T08:32:38.141Z,14.27
2022-11-26T08:36:05.483Z,13.45
2022-11-26T08:39:01.637Z,13.40
2022-11-26T08:42:03.295Z,13.07
2022-11-26T08:45:05.147Z,12.68
2022-11-26T08:48:06.730Z,11.70
2022-11-26T08:51:11.556Z,12.57
2022-11-26T08:54:13.124Z,12.85
2022-11-26T08:57:14.775Z,12.23
2022-11-26T09:00:16.843Z,11.98
2022-11-26T09:03:18.523Z,11.20
2022-11-26T09:06:21.941Z,12.07
2022-11-26T09:09:23.491Z,11.38
2022-11-26T09:12:25.106Z,10.23
2022-11-26T09:15:26.706Z,10.25
2022-11-26T09:18:28.319Z,10.70
2022-11-26T09:21:30.626Z,10.10
2022-11-26T09:24:32.302Z,9.85
2022-11-26T09:27:33.896Z,11.02
2022-11-26T09:30:35.973Z,10.07
2022-11-26T09:33:37.584Z,9.60
2022-11-26T09:36:40.171Z,9.13
2022-11-26T09:39:41.775Z,9.18
2022-11-26T09:43:05.855Z,8.85
2022-11-26T09:46:10.076Z,9.65
2022-11-26T09:49:14.688Z,9.70
2022-11-26T09:52:19.070Z,9.30
2022-11-26T09:55:28.137Z,8.65
2022-11-26T09:58:57.656Z,8.13
2022-11-26T10:01:59.886Z,8.57
2022-11-26T10:05:01.559Z,7.10
2022-11-26T10:08:16.271Z,7.15
2022-11-26T10:11:29.771Z,7.85
2022-11-26T10:15:01.797Z,7.85
2022-11-26T10:18:21.654Z,7.68
2022-11-26T10:25:04.481Z,7.88
2022-11-26T10:28:39.650Z,7.75
2022-11-26T10:31:44.680Z,7.70
2022-11-26T10:34:50.932Z,7.00
2022-11-26T10:37:54.042Z,7.13
2022-11-26T10:40:55.661Z,6.82
2022-11-26T10:44:33.883Z,6.13
2022-11-26T10:47:35.598Z,6.22
2022-11-26T10:50:47.662Z,6.38
2022-11-26T10:53:59.905Z,6.38
2022-11-26T10:57:10.586Z,6.38
2022-11-26T11:00:39.767Z,6.88
2022-11-26T11:04:12.804Z,6.53
2022-11-26T11:07:40.187Z,6.07
2022-11-26T11:11:17.641Z,6.18
2022-11-26T11:14:43.204Z,5.93
2022-11-26T11:17:47.402Z,6.20
2022-11-26T11:20:55.636Z,7.13
2022-11-26T11:24:15.338Z,5.82
2022-11-26T11:27:40.906Z,6.15
2022-11-26T11:30:44.315Z,7.00
2022-11-26T11:33:46.547Z,5.47
2022-11-26T11:37:18.567Z,5.97
2022-11-26T11:40:28.878Z,5.32
2022-11-26T11:43:35.609Z,5.80
2022-11-26T11:47:08.160Z,5.72
2022-11-26T11:50:17.656Z,6.13
2022-11-26T11:53:44.472Z,6.80
2022-11-26T11:56:52.614Z,5.43
2022-11-26T12:00:18.255Z,5.47
2022-11-26T12:03:26.454Z,5.82
2022-11-26T12:06:46.969Z,6.20
2022-11-26T12:10:16.505Z,6.57
2022-11-26T12:13:22.423Z,5.85
2022-11-26T12:16:27.215Z,5.45
2022-11-26T12:19:50.237Z,6.07
2022-11-26T12:23:24.521Z,5.32
2022-11-26T12:26:29.366Z,5.57
2022-11-26T12:29:42.278Z,5.63
2022-11-26T12:33:24.943Z,6.32
2022-11-26T12:36:39.941Z,6.13
2022-11-26T12:39:54.064Z,6.10
2022-11-26T12:48:02.817Z,5.72
2022-11-26T13:07:13.763Z,5.78
2022-11-26T13:10:17.968Z,5.68
2022-11-26T13:13:50.506Z,5.30
2022-11-26T13:17:21.394Z,5.97
2022-11-26T13:23:35.802Z,5.53
2022-11-26T13:26:51.856Z,5.63
2022-11-26T13:29:59.498Z,6.55
2022-11-26T13:33:24.957Z,6.80
2022-11-26T13:36:47.991Z,6.82
2022-11-26T13:40:32.101Z,7.18
2022-11-26T13:44:07.032Z,7.53
2022-11-26T13:47:10.293Z,5.78
2022-11-26T13:50:42.208Z,5.47
2022-11-26T13:53:51.765Z,5.95
2022-11-26T13:57:08.257Z,6.05
2022-11-26T14:00:10.870Z,6.85
2022-11-26T14:03:45.414Z,6.75
2022-11-26T14:07:07.471Z,6.65
2022-11-26T14:10:34.996Z,6.15
2022-11-26T14:13:36.778Z,5.85
2022-11-26T14:17:01.381Z,5.78
2022-11-26T14:20:04.430Z,5.85
2022-11-26T14:23:41.095Z,5.80
2022-11-26T14:26:42.708Z,5.72
2022-11-26T14:29:46.072Z,5.43
2022-11-26T14:32:55.843Z,7.07
2022-11-26T14:35:58.438Z,6.60
2022-11-26T14:39:18.254Z,7.05
2022-11-26T14:42:19.854Z,6.17
2022-11-26T14:45:24.034Z,6.30
2022-11-26T14:48:28.199Z,6.03
2022-11-26T14:51:29.773Z,6.18
2022-11-26T14:54:35.266Z,5.85
2022-11-26T14:57:39.863Z,5.60
2022-11-26T15:00:41.722Z,7.30
2022-11-26T15:04:00.595Z,6.32
2022-11-26T15:07:02.162Z,6.93
2022-11-26T15:10:22.262Z,6.50
2022-11-26T15:13:37.927Z,5.50
2022-11-26T15:16:41.297Z,5.43
2022-11-26T15:19:43.584Z,6.28
2022-11-26T15:22:51.167Z,5.70
2022-11-26T15:25:52.709Z,5.93
2022-11-26T15:28:54.274Z,5.10
2022-11-26T15:31:55.845Z,5.13
2022-11-26T15:35:00.406Z,5.30
2022-11-26T15:38:02.427Z,5.35
2022-11-26T15:41:07.947Z,4.93
2022-11-26T15:44:24.935Z,5.40
2022-11-26T15:47:28.684Z,5.28
2022-11-26T15:50:34.907Z,5.30
2022-11-26T15:53:39.235Z,5.22
2022-11-26T15:56:40.850Z,5.30
2022-11-26T15:59:57.170Z,5.78
2022-11-26T16:02:58.922Z,5.55
2022-11-26T16:06:02.897Z,6.38
2022-11-26T16:09:14.770Z,4.85
2022-11-26T16:12:31.574Z,5.60
2022-11-26T16:15:34.538Z,5.47
2022-11-26T16:18:39.058Z,5.35
2022-11-26T16:21:49.352Z,5.43
2022-11-26T16:25:07.330Z,5.25
2022-11-26T16:28:11.732Z,5.00
2022-11-26T16:31:15.157Z,5.50
2022-11-26T16:34:16.758Z,5.45
2022-11-26T16:37:27.641Z,4.25
2022-11-26T16:40:29.207Z,5.22
2022-11-26T16:43:30.749Z,4.65
2022-11-26T16:46:35.911Z,5.07
2022-11-26T16:49:37.532Z,4.85
2022-11-26T16:52:39.163Z,5.35
2022-11-26T16:55:40.779Z,5.63
2022-11-26T16:58:42.789Z,5.68
2022-11-26T17:01:44.361Z,5.45
2022-11-26T17:04:46.426Z,6.57
2022-11-26T17:07:48.092Z,6.18
2022-11-26T17:10:50.966Z,5.32
2022-11-26T17:13:52.903Z,5.60
2022-11-26T17:16:57.398Z,5.75
2022-11-26T17:19:59.006Z,5.47
2022-11-26T17:23:00.700Z,5.95
2022-11-26T17:26:03.878Z,5.45
2022-11-26T17:29:05.514Z,6.20
2022-11-26T17:32:11.000Z,6.15
2022-11-26T17:35:13.034Z,6.00
2022-11-26T17:38:20.888Z,5.88
2022-11-26T17:41:22.491Z,5.70
2022-11-26T17:44:26.272Z,5.60
2022-11-26T17:47:27.860Z,5.53
2022-11-26T17:50:33.053Z,5.63
2022-11-26T17:53:43.758Z,5.30
2022-11-26T17:56:48.810Z,6.88
2022-11-26T17:59:50.367Z,5.85
2022-11-26T18:02:54.380Z,6.20
2022-11-26T18:05:56.007Z,6.15
2022-11-26T18:08:57.517Z,5.80
2022-11-26T18:12:03.248Z,5.47
2022-11-26T18:15:05.579Z,7.00
2022-11-26T18:18:07.595Z,6.43
2022-11-26T18:21:09.181Z,5.63
2022-11-26T18:24:11.363Z,5.95
2022-11-26T18:27:13.298Z,6.10
2022-11-26T18:30:20.278Z,7.15
2022-11-26T18:33:22.264Z,5.50
2022-11-26T18:36:24.513Z,5.93
2022-11-26T18:39:26.090Z,6.47
2022-11-26T18:42:43.077Z,9.65
2022-11-26T18:45:44.704Z,6.50
2022-11-26T18:48:48.065Z,6.45
2022-11-26T18:51:49.665Z,5.18
2022-11-26T18:54:51.248Z,5.45
2022-11-26T18:57:54.947Z,5.75
2022-11-26T19:01:07.069Z,6.07
2022-11-26T19:04:10.133Z,5.25
2022-11-26T19:07:12.749Z,5.78
2022-11-26T19:10:14.361Z,5.70
2022-11-26T19:13:20.623Z,5.00
2022-11-26T19:16:23.008Z,6.07
2022-11-26T19:19:27.302Z,6.63
2022-11-26T19:22:32.108Z,5.20
2022-11-26T19:25:36.182Z,5.32
2022-11-26T19:28:37.724Z,5.50
2022-11-26T19:31:39.728Z,6.47
2022-11-26T19:34:43.867Z,4.80
2022-11-26T19:37:45.946Z,5.13
2022-11-26T19:40:47.547Z,5.15
2022-11-26T19:43:49.342Z,5.40
2022-11-26T19:46:51.054Z,6.30
2022-11-26T19:49:54.673Z,6.00
2022-11-26T19:52:56.207Z,6.07
2022-11-26T19:56:04.653Z,6.03
2022-11-26T19:59:08.419Z,5.13
2022-11-26T20:02:10.754Z,5.15
2022-11-26T20:05:12.570Z,5.78
2022-11-26T20:08:14.299Z,4.93
2022-11-26T20:11:17.816Z,5.43
2022-11-26T20:14:19.429Z,5.82
2022-11-26T20:17:21.538Z,6.22
2022-11-26T20:20:23.194Z,6.45
2022-11-26T20:23:24.943Z,8.05
2022-11-26T20:26:32.388Z,6.10
2022-11-26T20:29:34.163Z,5.93
2022-11-26T20:32:38.993Z,6.05
2022-11-26T20:35:41.393Z,5.28
2022-11-26T20:38:42.972Z,5.88
2022-11-26T20:41:45.098Z,5.65
2022-11-26T20:44:46.756Z,6.45
2022-11-26T20:47:48.716Z,5.10
2022-11-26T20:50:50.255Z,5.45
2022-11-26T20:53:52.798Z,6.07
2022-11-26T20:56:54.338Z,6.10
2022-11-26T20:59:55.935Z,5.90
2022-11-26T21:02:57.574Z,5.93
2022-11-26T21:06:03.037Z,6.97
2022-11-26T21:09:06.322Z,6.82
2022-11-26T21:12:25.466Z,6.07
2022-11-26T21:15:27.032Z,6.43
2022-11-26T21:18:28.650Z,6.43
2022-11-26T21:21:30.334Z,5.97
2022-11-26T21:24:31.957Z,5.85
2022-11-26T21:27:34.942Z,5.68
2022-11-26T21:30:37.921Z,6.05
2022-11-26T21:33:39.603Z,6.05
2022-11-26T21:36:43.056Z,6.15
2022-11-26T21:39:44.669Z,6.60
2022-11-26T21:42:46.623Z,7.20
2022-11-26T21:45:51.021Z,7.10
2022-11-26T21:48:53.501Z,5.97
2022-11-26T21:51:55.119Z,6.03
2022-11-26T21:55:00.869Z,6.35
2022-11-26T21:58:05.043Z,6.55
2022-11-26T22:01:19.100Z,5.93
2022-11-26T22:04:24.067Z,6.18
2022-11-26T22:07:25.749Z,6.43
2022-11-26T22:10:30.792Z,5.93
2022-11-26T22:13:34.923Z,5.95
2022-11-26T22:16:36.689Z,6.50
2022-11-26T22:19:38.615Z,6.38
2022-11-26T22:22:40.395Z,7.03
2022-11-26T22:25:44.762Z,5.82
2022-11-26T22:28:46.826Z,5.32
2022-11-26T22:31:48.600Z,5.97
2022-11-26T22:34:50.216Z,6.53
2022-11-26T22:37:51.868Z,5.78
2022-11-26T22:40:53.411Z,6.65
2022-11-26T22:43:55.354Z,5.78
2022-11-26T22:46:56.956Z,6.60
2022-11-26T22:49:58.623Z,6.47
2022-11-26T22:53:02.328Z,6.45
2022-11-26T22:56:05.145Z,6.20
2022-11-26T22:59:08.806Z,6.10
2022-11-26T23:02:10.527Z,5.80
2022-11-26T23:05:12.255Z,6.05
2022-11-26T23:08:14.698Z,5.30
2022-11-26T23:11:22.453Z,5.90
2022-11-26T23:14:27.496Z,5.70
2022-11-26T23:17:29.152Z,6.38
2022-11-26T23:20:30.714Z,6.00
2022-11-26T23:23:33.215Z,5.43
2022-11-26T23:26:37.896Z,6.00
2022-11-26T23:29:40.323Z,6.30
2022-11-26T23:32:42.318Z,5.25
2022-11-26T23:35:44.131Z,5.82
2022-11-26T23:38:46.045Z,5.38
2022-11-26T23:41:47.671Z,5.60
2022-11-26T23:44:49.354Z,5.25
2022-11-26T23:47:50.922Z,5.57
2022-11-26T23:50:52.522Z,4.88
2022-11-26T23:53:54.654Z,5.00
2022-11-26T23:56:56.231Z,4.75
2022-11-26T23:59:57.791Z,4.88
